createdAt,value
2023-01-11T00:01:11.626Z,3.91
2023-01-11T00:03:39.540Z,3.88
2023-01-11T00:06:10.630Z,3.86
2023-01-11T00:08:41.363Z,3.88
2023-01-11T00:11:15.499Z,3.79
2023-01-11T00:13:46.069Z,3.72
2023-01-11T00:16:16.345Z,3.71
2023-01-11T00:18:47.180Z,3.77
2023-01-11T00:21:15.780Z,3.77
2023-01-11T00:23:43.468Z,3.78
2023-01-11T00:26:13.986Z,3.77
2023-01-11T00:28:41.631Z,3.75
2023-01-11T00:31:12.174Z,3.82
2023-01-11T00:33:39.761Z,3.84
2023-01-11T00:36:07.745Z,3.89
2023-01-11T00:38:54.002Z,3.90
2023-01-11T00:41:41.311Z,3.88
2023-01-11T00:44:30.418Z,3.86
2023-01-11T00:47:16.127Z,3.80
2023-01-11T00:49:44.347Z,3.81
2023-01-11T00:52:12.102Z,3.74
2023-01-11T00:54:41.004Z,3.69
2023-01-11T00:57:12.498Z,3.62
2023-01-11T00:59:40.754Z,3.68
2023-01-11T01:02:10.069Z,3.65
2023-01-11T01:04:37.811Z,3.68
2023-01-11T01:07:05.896Z,3.59
2023-01-11T01:09:33.907Z,3.59
2023-01-11T01:12:02.923Z,3.60
2023-01-11T01:14:30.352Z,3.53
2023-01-11T01:17:02.751Z,3.50
2023-01-11T01:19:35.947Z,3.56
2023-01-11T01:22:03.824Z,3.55
2023-01-11T01:24:32.549Z,3.51
2023-01-11T01:27:00.132Z,3.50
2023-01-11T01:29:29.298Z,3.58
2023-01-11T01:31:59.283Z,3.60
2023-01-11T01:34:26.953Z,3.63
2023-01-11T01:36:59.616Z,3.60
2023-01-11T01:39:30.398Z,3.58
2023-01-11T01:42:00.728Z,3.53
2023-01-11T01:45:07.315Z,3.54
2023-01-11T01:47:46.246Z,3.55
2023-01-11T01:50:37.142Z,3.48
2023-01-11T01:53:19.947Z,3.44
2023-01-11T01:55:54.463Z,3.45
2023-01-11T01:58:28.772Z,3.49
2023-01-11T02:01:18.573Z,3.46
2023-01-11T02:03:49.600Z,3.44
2023-01-11T02:06:17.345Z,3.51
2023-01-11T02:08:49.344Z,3.49
2023-01-11T02:11:35.699Z,3.50
2023-01-11T02:14:15.944Z,3.53
2023-01-11T02:16:43.525Z,3.47
2023-01-11T02:19:23.406Z,3.50
2023-01-11T02:22:18.235Z,3.53
2023-01-11T02:25:16.721Z,3.50
2023-01-11T02:28:02.738Z,3.50
2023-01-11T02:30:45.558Z,3.54
2023-01-11T02:33:18.869Z,3.50
2023-01-11T02:35:49.175Z,3.47
2023-01-11T02:38:29.269Z,3.42
2023-01-11T02:41:53.592Z,3.39
2023-01-11T02:44:56.477Z,3.37
2023-01-11T02:47:39.541Z,3.32
2023-01-11T02:50:11.290Z,3.33
2023-01-11T02:53:04.376Z,3.34
2023-01-11T02:55:39.888Z,3.39
2023-01-11T02:58:12.123Z,3.43
2023-01-11T03:00:42.018Z,3.42
2023-01-11T03:03:24.933Z,3.42
2023-01-11T03:06:12.530Z,3.34
2023-01-11T03:08:58.692Z,3.26
2023-01-11T03:11:47.033Z,3.29
2023-01-11T03:14:42.692Z,3.24
2023-01-11T03:17:28.300Z,3.22
2023-01-11T03:20:19.688Z,3.21
2023-01-11T03:22:47.198Z,3.14
2023-01-11T03:25:20.672Z,3.17
2023-01-11T03:27:55.757Z,3.13
2023-01-11T03:30:39.716Z,3.13
2023-01-11T03:33:14.562Z,3.13
2023-01-11T03:35:52.315Z,3.14
2023-01-11T03:38:37.710Z,3.09
2023-01-11T03:41:26.382Z,2.98
2023-01-11T03:43:59.492Z,2.89
2023-01-11T03:46:42.328Z,2.75
2023-01-11T03:49:15.962Z,2.62
2023-01-11T03:51:46.073Z,2.47
2023-01-11T03:54:19.001Z,2.36
2023-01-11T03:57:00.352Z,2.28
2023-01-11T03:59:31.307Z,2.29
2023-01-11T04:01:59.198Z,2.41
2023-01-11T04:04:26.933Z,2.40
2023-01-11T04:06:55.680Z,2.45
2023-01-11T04:09:23.281Z,2.48
2023-01-11T04:11:50.849Z,2.66
2023-01-11T04:14:18.439Z,2.82
2023-01-11T04:16:48.391Z,2.91
2023-01-11T04:19:15.973Z,2.92
2023-01-11T04:21:45.911Z,2.94
2023-01-11T04:24:13.980Z,3.01
2023-01-11T04:26:41.615Z,3.01
2023-01-11T04:29:10.440Z,3.03
2023-01-11T04:31:38.075Z,3.00
2023-01-11T04:34:05.700Z,3.17
2023-01-11T04:36:33.765Z,3.20
2023-01-11T04:39:02.114Z,3.15
2023-01-11T04:41:47.407Z,3.10
2023-01-11T04:44:17.282Z,3.12
2023-01-11T04:46:44.856Z,3.11
2023-01-11T04:49:12.698Z,3.17
2023-01-11T04:51:40.342Z,3.17
2023-01-11T04:54:08.040Z,3.16
2023-01-11T04:56:36.332Z,3.09
2023-01-11T04:59:03.918Z,3.03
2023-01-11T05:01:33.689Z,3.04
2023-01-11T05:04:03.470Z,3.03
2023-01-11T05:06:31.095Z,2.99
2023-01-11T05:08:58.886Z,3.01
2023-01-11T05:11:28.744Z,2.98
2023-01-11T05:13:59.893Z,2.95
2023-01-11T05:16:27.606Z,2.89
2023-01-11T05:18:59.235Z,2.82
2023-01-11T05:21:31.291Z,2.81
2023-01-11T05:24:03.461Z,2.57
2023-01-11T05:26:34.816Z,2.67
2023-01-11T05:29:08.039Z,2.61
2023-01-11T05:31:38.327Z,2.58
2023-01-11T05:34:07.657Z,2.82
2023-01-11T05:36:36.368Z,2.92
2023-01-11T05:39:05.764Z,2.81
2023-01-11T05:41:34.035Z,2.66
2023-01-11T05:44:19.152Z,2.53
2023-01-11T05:46:46.749Z,2.42
2023-01-11T05:49:15.431Z,2.28
2023-01-11T05:51:44.648Z,2.20
2023-01-11T05:54:15.232Z,2.12
2023-01-11T05:56:44.207Z,2.05
2023-01-11T05:59:14.314Z,1.90
2023-01-11T06:01:42.148Z,1.86
2023-01-11T06:04:09.803Z,1.95
2023-01-11T06:06:37.500Z,1.91
2023-01-11T06:09:05.121Z,1.81
2023-01-11T06:11:38.091Z,1.71
2023-01-11T06:14:05.701Z,1.65
2023-01-11T06:16:35.688Z,1.63
2023-01-11T06:19:03.505Z,1.64
2023-01-11T06:21:31.077Z,1.66
2023-01-11T06:23:58.643Z,1.70
2023-01-11T06:26:28.366Z,1.70
2023-01-11T06:28:55.932Z,1.75
2023-01-11T06:31:23.655Z,1.77
2023-01-11T06:33:51.516Z,1.78
2023-01-11T06:36:21.485Z,1.86
2023-01-11T06:38:49.095Z,1.88
2023-01-11T06:41:16.729Z,1.92
2023-01-11T06:43:44.342Z,1.92
2023-01-11T06:46:18.990Z,1.99
2023-01-11T06:48:46.719Z,2.05
2023-01-11T06:51:16.280Z,2.10
2023-01-11T06:53:45.927Z,2.09
2023-01-11T06:56:16.278Z,2.04
2023-01-11T06:58:46.756Z,1.99
2023-01-11T07:01:14.962Z,1.97
2023-01-11T07:03:42.642Z,1.94
2023-01-11T07:06:13.926Z,1.91
2023-01-11T07:08:42.454Z,1.96
2023-01-11T07:11:10.236Z,1.98
2023-01-11T07:13:38.104Z,2.16
2023-01-11T07:16:05.992Z,2.43
2023-01-11T07:18:33.619Z,2.65
2023-01-11T07:21:02.427Z,2.80
2023-01-11T07:23:30.050Z,2.89
2023-01-11T07:26:00.325Z,2.97
2023-01-11T07:28:30.555Z,2.97
2023-01-11T07:30:59.891Z,3.01
2023-01-11T07:33:28.052Z,3.08
2023-01-11T07:35:56.241Z,3.28
2023-01-11T07:38:26.133Z,3.60
2023-01-11T07:40:56.085Z,4.04
2023-01-11T07:43:23.744Z,4.47
2023-01-11T07:45:53.685Z,4.69
2023-01-11T07:48:26.384Z,5.41
2023-01-11T07:50:56.496Z,6.03
2023-01-11T07:53:25.667Z,6.60
2023-01-11T07:55:53.659Z,6.99
2023-01-11T07:58:21.298Z,7.54
2023-01-11T08:00:48.962Z,7.86
2023-01-11T08:03:16.671Z,8.21
2023-01-11T08:05:44.383Z,7.95
2023-01-11T08:08:12.025Z,7.31
2023-01-11T08:10:41.941Z,6.51
2023-01-11T08:13:34.842Z,5.86
2023-01-11T08:16:02.536Z,5.26
2023-01-11T08:18:30.178Z,5.18
2023-01-11T08:20:57.799Z,5.05
2023-01-11T08:23:25.459Z,5.00
2023-01-11T08:25:58.076Z,5.22
2023-01-11T08:28:25.817Z,5.30
2023-01-11T08:30:53.779Z,5.03
2023-01-11T08:33:21.407Z,4.83
2023-01-11T08:35:49.109Z,4.57
2023-01-11T08:38:16.714Z,4.46
2023-01-11T08:40:44.368Z,4.34
2023-01-11T08:43:22.070Z,4.35
2023-01-11T08:45:53.306Z,4.29
2023-01-11T08:48:20.949Z,4.33
2023-01-11T08:50:48.700Z,4.37
2023-01-11T08:53:16.694Z,4.32
2023-01-11T08:55:44.711Z,4.31
2023-01-11T08:58:14.388Z,4.30
2023-01-11T09:00:42.247Z,4.38
2023-01-11T09:03:11.894Z,4.73
2023-01-11T09:05:42.963Z,5.22
2023-01-11T09:08:10.622Z,6.69
2023-01-11T09:10:38.585Z,8.22
2023-01-11T09:13:06.178Z,9.20
2023-01-11T09:15:33.810Z,10.43
2023-01-11T09:18:03.062Z,10.95
2023-01-11T09:20:33.422Z,11.19
2023-01-11T09:23:02.313Z,11.52
2023-01-11T09:25:29.939Z,11.54
2023-01-11T09:27:57.658Z,12.52
2023-01-11T09:30:25.486Z,12.74
2023-01-11T09:32:54.485Z,13.14
2023-01-11T09:35:22.697Z,13.34
2023-01-11T09:37:51.512Z,13.47
2023-01-11T09:40:46.102Z,13.69
2023-01-11T09:43:16.790Z,13.51
2023-01-11T09:45:46.856Z,13.74
2023-01-11T09:48:46.303Z,13.58
2023-01-11T09:51:17.197Z,13.39
2023-01-11T09:53:50.204Z,14.41
2023-01-11T09:56:25.348Z,14.60
2023-01-11T09:59:24.310Z,15.26
2023-01-11T10:02:12.664Z,14.09
2023-01-11T10:05:18.589Z,15.10
2023-01-11T10:18:31.138Z,13.81
2023-01-11T10:18:32.764Z,15.12
2023-01-11T10:20:43.007Z,13.60
2023-01-11T10:23:35.521Z,13.79
2023-01-11T10:26:14.941Z,13.81
2023-01-11T10:29:07.394Z,13.61
2023-01-11T10:31:49.407Z,13.26
2023-01-11T10:34:42.026Z,12.97
2023-01-11T10:37:36.170Z,13.39
2023-01-11T10:40:29.470Z,13.09
2023-01-11T10:43:05.886Z,12.52
2023-01-11T10:45:52.808Z,13.02
2023-01-11T10:48:40.138Z,12.45
2023-01-11T10:51:29.482Z,11.98
2023-01-11T10:54:14.641Z,11.32
2023-01-11T10:57:02.808Z,10.91
2023-01-11T10:59:48.660Z,10.64
2023-01-11T11:02:28.405Z,10.48
2023-01-11T11:05:25.576Z,10.35
2023-01-11T11:08:16.243Z,10.21
2023-01-11T11:11:00.526Z,9.94
2023-01-11T11:14:12.894Z,9.84
2023-01-11T11:16:54.798Z,9.82
2023-01-11T11:19:26.518Z,9.76
2023-01-11T11:21:54.246Z,9.61
2023-01-11T11:24:33.739Z,9.65
2023-01-11T11:27:14.938Z,9.54
2023-01-11T11:29:44.879Z,9.56
2023-01-11T11:32:21.103Z,9.53
2023-01-11T11:34:50.276Z,9.50
2023-01-11T11:37:34.635Z,9.50
2023-01-11T11:40:05.757Z,9.49
2023-01-11T11:42:33.785Z,9.59
2023-01-11T11:45:10.689Z,9.72
2023-01-11T11:47:39.557Z,9.94
2023-01-11T11:50:43.100Z,10.04
2023-01-11T11:53:53.420Z,10.48
2023-01-11T11:56:31.153Z,11.08
2023-01-11T11:59:00.508Z,11.50
2023-01-11T12:01:34.822Z,11.91
2023-01-11T12:04:19.171Z,12.48
2023-01-11T12:06:53.636Z,12.56
2023-01-11T12:09:32.248Z,12.53
2023-01-11T12:12:01.142Z,12.87
2023-01-11T12:14:31.938Z,12.67
2023-01-11T12:17:00.457Z,12.60
2023-01-11T12:19:32.383Z,12.22
2023-01-11T12:22:20.016Z,13.07
2023-01-11T12:24:49.575Z,12.98
2023-01-11T12:27:46.387Z,13.11
2023-01-11T12:30:32.025Z,12.72
2023-01-11T12:33:25.668Z,12.87
2023-01-11T12:36:15.299Z,12.19
2023-01-11T12:38:48.677Z,12.43
2023-01-11T12:41:50.306Z,11.83
2023-01-11T12:44:25.357Z,12.39
2023-01-11T12:47:01.892Z,12.69
2023-01-11T12:49:38.547Z,12.94
2023-01-11T12:52:27.725Z,13.20
2023-01-11T12:55:04.731Z,12.58
2023-01-11T12:57:59.854Z,12.41
2023-01-11T13:00:33.124Z,11.71
2023-01-11T13:03:34.803Z,11.64
2023-01-11T13:06:21.233Z,11.82
2023-01-11T13:08:54.262Z,11.84
2023-01-11T13:11:37.044Z,12.30
2023-01-11T13:14:39.300Z,12.63
2023-01-11T13:17:34.391Z,13.00
2023-01-11T13:20:20.565Z,12.75
2023-01-11T13:22:53.671Z,13.15
2023-01-11T13:25:23.911Z,13.19
2023-01-11T13:27:59.337Z,13.43
2023-01-11T13:30:27.687Z,13.62
2023-01-11T13:33:01.671Z,13.64
2023-01-11T13:35:42.181Z,13.63
2023-01-11T13:38:34.786Z,13.29
2023-01-11T13:41:13.602Z,13.07
2023-01-11T13:43:51.859Z,12.87
2023-01-11T13:46:47.800Z,12.34
2023-01-11T13:49:19.443Z,11.79
2023-01-11T13:52:12.071Z,10.87
2023-01-11T13:54:43.831Z,10.56
2023-01-11T13:57:25.487Z,10.08
2023-01-11T14:00:02.627Z,9.65
2023-01-11T14:03:01.571Z,9.39
2023-01-11T14:05:34.008Z,9.16
2023-01-11T14:08:07.558Z,8.94
2023-01-11T14:10:45.175Z,8.77
2023-01-11T14:13:57.917Z,8.57
2023-01-11T14:16:25.531Z,8.45
2023-01-11T14:19:11.789Z,8.29
2023-01-11T14:21:57.291Z,8.15
2023-01-11T14:24:29.025Z,7.97
2023-01-11T14:27:18.313Z,7.82
2023-01-11T14:30:04.598Z,7.65
2023-01-11T14:32:55.490Z,7.52
2023-01-11T14:35:25.915Z,7.38
2023-01-11T14:38:30.806Z,7.24
2023-01-11T14:41:04.530Z,7.10
2023-01-11T14:44:15.071Z,7.01
2023-01-11T14:46:45.521Z,6.90
2023-01-11T14:49:43.008Z,6.78
2023-01-11T14:52:15.868Z,6.65
2023-01-11T14:54:46.406Z,6.48
2023-01-11T14:57:56.098Z,6.40
2023-01-11T15:00:23.682Z,6.31
2023-01-11T15:03:01.090Z,6.18
2023-01-11T15:05:31.665Z,6.04
2023-01-11T15:08:23.362Z,5.89
2023-01-11T15:11:30.549Z,5.74
2023-01-11T15:14:02.857Z,5.62
2023-01-11T15:16:52.498Z,5.50
2023-01-11T15:19:34.390Z,5.21
2023-01-11T15:22:07.754Z,5.25
2023-01-11T15:24:57.684Z,5.11
2023-01-11T15:27:28.538Z,4.97
2023-01-11T15:29:58.342Z,4.92
2023-01-11T15:32:30.142Z,4.86
2023-01-11T15:35:28.681Z,4.73
2023-01-11T15:37:59.268Z,4.60
2023-01-11T15:40:32.467Z,4.60
2023-01-11T15:43:13.410Z,4.43
2023-01-11T15:46:13.982Z,4.30
2023-01-11T15:49:05.807Z,4.16
2023-01-11T15:51:33.434Z,4.03
2023-01-11T15:54:38.656Z,3.90
2023-01-11T15:57:43.923Z,3.77
2023-01-11T16:00:44.082Z,3.69
2023-01-11T16:03:50.050Z,3.60
2023-01-11T16:06:40.880Z,3.50
2023-01-11T16:09:26.964Z,3.36
2023-01-11T16:12:12.298Z,3.24
2023-01-11T16:15:10.943Z,3.10
2023-01-11T16:17:42.080Z,3.01
2023-01-11T16:20:21.931Z,2.93
2023-01-11T16:23:02.524Z,2.84
2023-01-11T16:25:33.491Z,2.77
2023-01-11T16:28:02.110Z,2.72
2023-01-11T16:30:30.408Z,2.67
2023-01-11T16:33:24.755Z,2.64
2023-01-11T16:36:04.811Z,2.57
2023-01-11T16:38:44.092Z,2.53
2023-01-11T16:41:15.045Z,2.48
2023-01-11T16:44:01.603Z,2.45
2023-01-11T16:46:47.388Z,2.41
2023-01-11T16:49:19.043Z,2.41
2023-01-11T16:51:49.178Z,2.38
2023-01-11T16:54:29.966Z,2.35
2023-01-11T16:56:59.164Z,2.31
2023-01-11T16:59:31.681Z,2.29
2023-01-11T17:02:03.588Z,2.24
2023-01-11T17:04:35.756Z,2.21
2023-01-11T17:07:16.057Z,2.17
2023-01-11T17:09:45.788Z,2.18
2023-01-11T17:12:27.440Z,2.16
2023-01-11T17:15:24.792Z,2.14
2023-01-11T17:17:52.619Z,1.98
2023-01-11T17:20:23.254Z,2.09
2023-01-11T17:22:53.872Z,2.04
2023-01-11T17:25:29.480Z,2.02
2023-01-11T17:28:17.180Z,1.96
2023-01-11T17:30:52.427Z,1.95
2023-01-11T17:33:33.961Z,1.92
2023-01-11T17:36:02.923Z,1.87
2023-01-11T17:38:32.486Z,1.87
2023-01-11T17:41:24.122Z,1.84
2023-01-11T17:44:11.760Z,1.79
2023-01-11T17:46:42.128Z,1.78
2023-01-11T17:49:22.180Z,1.78
2023-01-11T17:51:53.021Z,1.76
2023-01-11T17:54:28.806Z,1.72
2023-01-11T17:57:00.318Z,1.76
2023-01-11T17:59:30.072Z,1.72
2023-01-11T18:02:15.763Z,1.70
2023-01-11T18:04:44.026Z,1.65
2023-01-11T18:07:20.913Z,1.59
2023-01-11T18:09:50.888Z,1.60
2023-01-11T18:12:29.037Z,1.56
2023-01-11T18:15:05.619Z,1.52
2023-01-11T18:17:33.181Z,1.52
2023-01-11T18:20:02.912Z,1.46
2023-01-11T18:22:33.250Z,1.44
2023-01-11T18:25:24.940Z,1.44
2023-01-11T18:27:53.106Z,1.40
2023-01-11T18:30:32.807Z,1.35
2023-01-11T18:33:03.689Z,1.27
2023-01-11T18:35:32.111Z,1.21
2023-01-11T18:37:59.759Z,1.23
2023-01-11T18:40:27.427Z,1.19
2023-01-11T18:42:55.244Z,1.14
2023-01-11T18:45:24.901Z,1.07
2023-01-11T18:47:54.769Z,1.05
2023-01-11T18:50:23.931Z,1.07
2023-01-11T18:52:51.565Z,1.08
2023-01-11T18:55:21.453Z,1.03
2023-01-11T18:57:49.310Z,1.01
2023-01-11T19:00:18.600Z,0.96
2023-01-11T19:02:46.631Z,0.92
2023-01-11T19:05:16.154Z,0.88
2023-01-11T19:07:46.383Z,0.86
2023-01-11T19:10:20.100Z,0.84
2023-01-11T19:12:48.347Z,0.82
2023-01-11T19:15:19.182Z,0.77
2023-01-11T19:17:46.811Z,0.69
2023-01-11T19:20:15.503Z,0.66
2023-01-11T19:22:45.266Z,0.69
2023-01-11T19:25:13.740Z,0.69
2023-01-11T19:27:41.403Z,0.69
2023-01-11T19:30:09.727Z,0.70
2023-01-11T19:32:37.420Z,0.74
2023-01-11T19:35:08.458Z,0.74
2023-01-11T19:37:38.610Z,0.69
2023-01-11T19:40:10.188Z,0.70
2023-01-11T19:42:40.184Z,0.65
2023-01-11T19:45:12.689Z,0.61
2023-01-11T19:47:40.752Z,0.63
2023-01-11T19:50:09.494Z,0.63
2023-01-11T19:52:37.076Z,0.59
2023-01-11T19:55:04.851Z,0.57
2023-01-11T19:57:35.162Z,0.59
2023-01-11T20:00:04.006Z,0.55
2023-01-11T20:02:32.822Z,0.59
2023-01-11T20:05:02.829Z,0.56
2023-01-11T20:07:31.281Z,0.49
2023-01-11T20:10:02.094Z,0.43
2023-01-11T20:12:29.718Z,0.40
2023-01-11T20:15:01.229Z,0.35
2023-01-11T20:17:29.427Z,0.32
2023-01-11T20:19:57.111Z,0.28
2023-01-11T20:22:25.427Z,0.28
2023-01-11T20:24:56.020Z,0.22
2023-01-11T20:27:23.672Z,0.21
2023-01-11T20:29:51.544Z,0.16
2023-01-11T20:32:40.995Z,0.13
2023-01-11T20:35:10.037Z,0.12
2023-01-11T20:37:37.744Z,0.09
2023-01-11T20:40:05.836Z,0.04
2023-01-11T20:42:36.720Z,0.04
2023-01-11T20:45:04.573Z,-0.05
2023-01-11T20:47:32.157Z,-0.07
2023-01-11T20:49:59.739Z,-0.07
2023-01-11T20:52:27.347Z,-0.14
2023-01-11T20:54:54.947Z,-0.13
2023-01-11T20:57:22.693Z,-0.18
2023-01-11T20:59:50.402Z,-0.20
2023-01-11T21:02:18.248Z,-0.18
2023-01-11T21:04:45.862Z,-0.20
2023-01-11T21:07:15.663Z,-0.22
2023-01-11T21:09:43.276Z,-0.25
2023-01-11T21:12:10.886Z,-0.26
2023-01-11T21:14:38.570Z,-0.28
2023-01-11T21:17:10.614Z,-0.29
2023-01-11T21:19:38.224Z,-0.31
2023-01-11T21:22:06.031Z,-0.29
2023-01-11T21:24:33.664Z,-0.33
2023-01-11T21:27:02.970Z,-0.39
2023-01-11T21:29:30.679Z,-0.39
2023-01-11T21:31:58.383Z,-0.36
2023-01-11T21:34:30.779Z,-0.39
2023-01-11T21:36:58.387Z,-0.41
2023-01-11T21:39:26.679Z,-0.40
2023-01-11T21:41:58.981Z,-0.41
2023-01-11T21:44:33.372Z,-0.41
2023-01-11T21:47:06.390Z,-0.39
2023-01-11T21:49:37.682Z,-0.34
2023-01-11T21:52:06.295Z,-0.31
2023-01-11T21:54:34.057Z,-0.29
2023-01-11T21:57:03.851Z,-0.30
2023-01-11T21:59:33.644Z,-0.23
2023-01-11T22:02:03.411Z,-0.26
2023-01-11T22:04:31.048Z,-0.26
2023-01-11T22:07:00.042Z,-0.25
2023-01-11T22:09:28.159Z,-0.26
2023-01-11T22:11:56.434Z,-0.25
2023-01-11T22:14:24.102Z,-0.24
2023-01-11T22:16:54.597Z,-0.17
2023-01-11T22:19:22.176Z,-0.17
2023-01-11T22:21:49.819Z,-0.18
2023-01-11T22:24:20.751Z,-0.19
2023-01-11T22:26:48.346Z,-0.27
2023-01-11T22:29:16.094Z,-0.25
2023-01-11T22:31:54.901Z,-0.25
2023-01-11T22:34:23.902Z,-0.32
2023-01-11T22:36:52.527Z,-0.37
2023-01-11T22:39:20.360Z,-0.37
2023-01-11T22:41:51.279Z,-0.39
2023-01-11T22:44:21.101Z,-0.42
2023-01-11T22:46:49.185Z,-0.43
2023-01-11T22:49:17.413Z,-0.46
2023-01-11T22:51:47.520Z,-0.45
2023-01-11T22:54:15.577Z,-0.43
2023-01-11T22:56:43.236Z,-0.45
2023-01-11T22:59:11.506Z,-0.42
2023-01-11T23:01:41.698Z,-0.36
2023-01-11T23:04:13.861Z,-0.38
2023-01-11T23:06:43.106Z,-0.42
2023-01-11T23:09:16.282Z,-0.43
2023-01-11T23:12:01.724Z,-0.44
2023-01-11T23:14:33.755Z,-0.47
2023-01-11T23:17:05.267Z,-0.47
2023-01-11T23:19:36.350Z,-0.49
2023-01-11T23:22:05.088Z,-0.53
2023-01-11T23:24:37.183Z,-0.54
2023-01-11T23:27:07.303Z,-0.54
2023-01-11T23:29:35.519Z,-0.51
2023-01-11T23:32:04.257Z,-0.53
2023-01-11T23:34:31.867Z,-0.52
2023-01-11T23:36:59.480Z,-0.54
2023-01-11T23:39:27.080Z,-0.54
2023-01-11T23:42:12.224Z,-0.46
2023-01-11T23:44:40.077Z,-0.42
2023-01-11T23:47:21.569Z,-0.36
2023-01-11T23:49:50.771Z,-0.30
2023-01-11T23:52:20.408Z,-0.31
2023-01-11T23:54:50.561Z,-0.31
2023-01-11T23:57:19.347Z,-0.33
2023-01-11T23:59:47.157Z,-0.40
